Brewerton, New York
Current Conditions -  °F | °C
As of 8:54 AM on Wednesday 26 Nov 2014 (Local Time) from KSYR Reporting Station
Overcast Overcast  
Wind Chill: 36°   Ceiling: 3000
Heat Index: 36°   Visibility: 10mi
Dew Point: 26°   Wind: 3mph
Humidity: 67%   Direction: 10°N
Pressure: 30.2"   Gusts: NA
Location:  43.24°N, 76.14°W
Report Text: KSYR 261354Z 01003KT 10SM OVC030 02/M03 A3020 RMK AO2 SLP228 T00221033
Loading
Personal Weather Stations






























Interactive Weather Map New forecast layout! Learn more

10-Day Weather Forecast

Advertisements
Track Severe Weather on mobile